Time;durP1;ratioP1;P1;durP2;ratioP2;P2;SDS_P1;SDS_P2;PMS_P1;PMS_P2;Temp;Humidity;BMP_temperature;BMP_pressure;BME280_temperature;BME280_humidity;BME280_pressure;Samples;Min_cycle;Max_cycle;Signal;HPM_P1;HPM_P2
2022/06/09 00:00:25;;;;;;;1.67;1.50;;;13.10;99.90;;;;;;5034557;28;20258;-81
2022/06/09 00:02:54;;;;;;;1.60;1.50;;;13.20;99.90;;;;;;5039046;28;20257;-81
2022/06/09 00:05:21;;;;;;;1.60;1.30;;;13.20;99.90;;;;;;5039902;28;20174;-81
2022/06/09 00:07:48;;;;;;;1.63;1.40;;;13.20;99.90;;;;;;5039283;28;20195;-81
2022/06/09 00:10:30;;;;;;;2.90;1.70;;;13.10;99.90;;;;;;5039667;28;20617;-81
2022/06/09 00:12:56;;;;;;;3.03;1.77;;;13.20;99.90;;;;;;5038415;28;20675;-81
2022/06/09 00:15:22;;;;;;;2.83;1.30;;;13.20;99.90;;;;;;5038481;28;20229;-81
2022/06/09 00:17:47;;;;;;;3.03;1.40;;;13.20;99.90;;;;;;5043646;28;20190;-79
2022/06/09 00:20:14;;;;;;;5.43;1.83;;;13.10;99.90;;;;;;5037404;28;20627;-80
2022/06/09 00:22:40;;;;;;;2.53;1.40;;;13.20;99.90;;;;;;5037632;28;20186;-81
2022/06/09 00:25:06;;;;;;;3.13;1.60;;;13.10;99.90;;;;;;5038937;28;20178;-81
2022/06/09 00:27:32;;;;;;;5.40;1.50;;;13.20;99.90;;;;;;5037704;28;20551;-81
2022/06/09 00:29:57;;;;;;;2.93;1.43;;;13.20;99.90;;;;;;5037458;28;20181;-81
2022/06/09 00:32:23;;;;;;;2.93;1.87;;;13.20;99.90;;;;;;5039526;28;20233;-80
2022/06/09 00:34:49;;;;;;;2.53;1.50;;;13.20;99.90;;;;;;5039710;28;20698;-80
2022/06/09 00:37:15;;;;;;;3.40;1.40;;;;;;;;;;5039351;28;20162;-80
2022/06/09 00:39:40;;;;;;;2.67;1.47;;;13.20;99.90;;;;;;5041233;28;20186;-80
2022/06/09 00:42:09;;;;;;;3.63;2.10;;;13.20;99.90;;;;;;5039347;28;20240;-81
2022/06/09 00:44:37;;;;;;;3.33;1.63;;;13.10;99.90;;;;;;5037874;28;20265;-80
2022/06/09 00:47:11;;;;;;;2.27;1.60;;;13.10;99.90;;;;;;5037538;28;20186;-81
2022/06/09 00:49:51;;;;;;;5.37;1.67;;;13.10;99.90;;;;;;5037820;28;20208;-81
2022/06/09 00:52:20;;;;;;;2.03;1.60;;;13.00;99.90;;;;;;5039231;28;20702;-80
2022/06/09 00:54:50;;;;;;;2.83;1.80;;;13.00;99.90;;;;;;5037979;28;20192;-81
2022/06/09 00:57:23;;;;;;;3.07;1.90;;;13.10;99.90;;;;;;5037637;28;20171;-81
2022/06/09 00:59:55;;;;;;;2.33;1.63;;;13.00;99.90;;;;;;5037582;28;20276;-80
2022/06/09 01:02:22;;;;;;;3.23;1.93;;;13.10;99.90;;;;;;5038902;28;20517;-81
2022/06/09 01:04:50;;;;;;;3.50;2.03;;;13.10;99.90;;;;;;5036534;28;20549;-81
2022/06/09 01:07:26;;;;;;;4.47;1.90;;;13.20;99.90;;;;;;5036329;28;20178;-81
2022/06/09 01:09:52;;;;;;;2.93;1.60;;;13.20;99.90;;;;;;5037350;28;20200;-81
2022/06/09 01:12:37;;;;;;;3.93;1.70;;;13.20;99.90;;;;;;5036411;28;20206;-81
2022/06/09 01:15:24;;;;;;;2.43;1.80;;;13.20;99.90;;;;;;5038184;28;20174;-81
2022/06/09 01:18:12;;;;;;;2.10;1.40;;;13.20;99.90;;;;;;5036784;28;20567;-81
2022/06/09 01:21:09;;;;;;;2.80;1.80;;;13.20;99.90;;;;;;5036879;28;20616;-81
2022/06/09 01:24:03;;;;;;;2.10;1.70;;;13.20;99.90;;;;;;5042662;28;20169;-81
2022/06/09 01:27:10;;;;;;;3.23;1.67;;;13.20;99.90;;;;;;5041104;28;20183;-81
2022/06/09 01:29:53;;;;;;;3.97;1.70;;;13.20;99.90;;;;;;5055335;28;20212;-81
2022/06/09 01:32:32;;;;;;;3.83;1.80;;;13.20;99.90;;;;;;5055888;28;20376;-81
2022/06/09 01:35:13;;;;;;;4.57;1.70;;;13.20;99.90;;;;;;5047309;28;20220;-81
2022/06/09 01:37:42;;;;;;;2.33;1.63;;;13.20;99.90;;;;;;5036127;28;20652;-81
2022/06/09 01:40:12;;;;;;;2.87;1.77;;;13.20;99.90;;;;;;5037517;28;20632;-81
2022/06/09 01:42:44;;;;;;;2.53;1.50;;;13.10;99.90;;;;;;5035772;28;20193;-82
2022/06/09 01:45:26;;;;;;;2.83;1.70;;;13.20;99.90;;;;;;5036430;28;20236;-81
2022/06/09 01:48:04;;;;;;;1.90;1.60;;;13.20;99.90;;;;;;5036443;28;20198;-82
2022/06/09 01:50:42;;;;;;;3.50;1.70;;;13.10;99.90;;;;;;5039421;28;20220;-81
2022/06/09 01:53:15;;;;;;;2.83;1.73;;;13.20;99.90;;;;;;5036974;28;20563;-81
2022/06/09 01:55:46;;;;;;;3.10;1.87;;;13.20;99.90;;;;;;5037281;28;20186;-81
2022/06/09 01:58:16;;;;;;;4.03;1.70;;;13.20;99.90;;;;;;5036049;28;20202;-82
2022/06/09 02:00:43;;;;;;;3.17;1.77;;;13.20;99.90;;;;;;5036095;28;20175;-81
2022/06/09 02:03:15;;;;;;;1.97;1.43;;;13.20;99.90;;;;;;5035852;28;20178;-81
2022/06/09 02:05:46;;;;;;;1.60;1.40;;;13.30;99.90;;;;;;5035814;28;20201;-82
2022/06/09 02:08:15;;;;;;;3.20;1.50;;;13.20;99.90;;;;;;5035540;28;20220;-82
2022/06/09 02:10:46;;;;;;;5.57;1.67;;;13.30;99.90;;;;;;5037105;28;20178;-82
2022/06/09 02:13:13;;;;;;;2.47;1.90;;;13.20;99.90;;;;;;5035842;28;20292;-82
2022/06/09 02:15:43;;;;;;;2.63;1.70;;;13.20;99.90;;;;;;5037423;28;20202;-81
2022/06/09 02:18:14;;;;;;;2.43;1.60;;;13.20;99.90;;;;;;5037202;28;20186;-81
2022/06/09 02:20:50;;;;;;;2.77;1.47;;;13.20;99.90;;;;;;5036676;28;20162;-81
2022/06/09 02:23:16;;;;;;;1.73;1.40;;;13.20;99.90;;;;;;5036877;28;20505;-82
2022/06/09 02:25:41;;;;;;;2.03;1.53;;;13.20;99.90;;;;;;5034979;28;20181;-82
2022/06/09 02:28:08;;;;;;;2.10;1.43;;;13.20;99.90;;;;;;5035789;28;20686;-81
2022/06/09 02:30:35;;;;;;;2.63;1.50;;;13.20;99.90;;;;;;5036848;28;20169;-83
2022/06/09 02:33:01;;;;;;;2.90;1.50;;;13.20;99.90;;;;;;5037618;28;20236;-81
2022/06/09 02:35:27;;;;;;;2.73;1.33;;;13.10;99.90;;;;;;5036973;28;20170;-82
2022/06/09 02:37:53;;;;;;;1.83;1.27;;;13.20;99.90;;;;;;5036329;28;20190;-82
2022/06/09 02:40:18;;;;;;;2.77;1.60;;;13.10;99.90;;;;;;5036581;28;20184;-82
2022/06/09 02:42:45;;;;;;;4.40;1.77;;;13.10;99.90;;;;;;5036661;28;20241;-82
2022/06/09 02:45:16;;;;;;;2.43;1.60;;;13.10;99.90;;;;;;5037497;28;20170;-83
2022/06/09 02:47:42;;;;;;;1.97;1.50;;;13.00;99.90;;;;;;5036308;28;20213;-82
2022/06/09 02:50:09;;;;;;;1.50;1.40;;;13.00;99.90;;;;;;5043569;28;20170;-81
2022/06/09 02:52:34;;;;;;;3.37;1.70;;;13.00;99.90;;;;;;5038438;28;20285;-81
2022/06/09 02:55:00;;;;;;;2.13;1.93;;;13.00;99.90;;;;;;5035029;28;20202;-82
2022/06/09 02:57:26;;;;;;;2.33;1.63;;;12.90;99.90;;;;;;5036198;28;20231;-81
2022/06/09 02:59:52;;;;;;;2.40;1.63;;;12.90;99.90;;;;;;5037850;28;20174;-81
2022/06/09 03:02:21;;;;;;;4.87;1.60;;;12.90;99.90;;;;;;5035832;28;20178;-81
2022/06/09 03:04:47;;;;;;;3.23;1.80;;;12.90;99.90;;;;;;5034607;28;20178;-82
2022/06/09 03:07:13;;;;;;;3.80;1.97;;;12.90;99.90;;;;;;5035976;28;20525;-81
2022/06/09 03:09:42;;;;;;;3.37;1.63;;;12.90;99.90;;;;;;5035616;28;20671;-81
2022/06/09 03:12:09;;;;;;;2.57;1.73;;;13.00;99.90;;;;;;5035874;28;20200;-81
2022/06/09 03:14:36;;;;;;;3.33;1.60;;;13.00;99.90;;;;;;5034875;28;20170;-81
2022/06/09 03:17:02;;;;;;;2.57;1.80;;;13.00;99.90;;;;;;5036046;28;20681;-81
2022/06/09 03:19:28;;;;;;;2.67;2.00;;;13.00;99.90;;;;;;5036194;28;20198;-82
2022/06/09 03:21:54;;;;;;;3.30;1.80;;;12.90;99.90;;;;;;5036441;28;20178;-81
2022/06/09 03:24:20;;;;;;;3.53;1.90;;;13.00;99.90;;;;;;5035195;28;20182;-81
2022/06/09 03:26:46;;;;;;;2.67;1.93;;;13.00;99.90;;;;;;5036528;28;20193;-82
2022/06/09 03:29:12;;;;;;;3.90;2.07;;;13.00;99.90;;;;;;5037144;28;20281;-81
2022/06/09 03:31:37;;;;;;;2.53;1.80;;;13.00;99.90;;;;;;5035273;28;20340;-82
2022/06/09 03:34:03;;;;;;;4.40;1.93;;;13.00;99.90;;;;;;5035198;28;20632;-82
2022/06/09 03:36:31;;;;;;;2.73;1.87;;;13.00;99.90;;;;;;5035217;28;20178;-82
2022/06/09 03:38:58;;;;;;;2.97;2.10;;;13.00;99.90;;;;;;5038283;28;20193;-82
2022/06/09 03:41:24;;;;;;;3.03;1.73;;;13.00;99.90;;;;;;5038252;28;20247;-82
2022/06/09 03:43:50;;;;;;;2.97;1.90;;;12.90;99.90;;;;;;5038804;28;20186;-82
2022/06/09 03:46:16;;;;;;;3.70;1.73;;;12.90;99.90;;;;;;5043923;28;20229;-81
2022/06/09 03:48:41;;;;;;;5.20;1.90;;;13.00;99.90;;;;;;5046773;28;20245;-82
2022/06/09 03:51:07;;;;;;;3.67;2.10;;;13.00;99.90;;;;;;5044076;28;20174;-81
2022/06/09 03:53:33;;;;;;;4.40;1.73;;;13.00;99.90;;;;;;5038661;28;20178;-82
2022/06/09 03:55:58;;;;;;;2.50;1.80;;;13.10;99.90;;;;;;5039636;28;20183;-82
2022/06/09 03:58:27;;;;;;;3.40;1.70;;;;;;;;;;5039646;28;20218;-82
2022/06/09 04:00:53;;;;;;;3.83;2.13;;;13.10;99.90;;;;;;5040242;28;20181;-81
2022/06/09 04:03:19;;;;;;;2.33;1.70;;;13.10;99.90;;;;;;5041186;28;20216;-81
2022/06/09 04:05:45;;;;;;;2.47;1.57;;;13.10;99.90;;;;;;5039148;28;20178;-82
2022/06/09 04:08:12;;;;;;;2.27;1.70;;;13.00;99.90;;;;;;5038141;28;20676;-81
2022/06/09 04:10:38;;;;;;;3.33;1.40;;;13.00;99.90;;;;;;5040346;28;20193;-81
2022/06/09 04:13:07;;;;;;;2.53;1.40;;;13.00;99.90;;;;;;5041218;28;20202;-82
2022/06/09 04:15:33;;;;;;;3.03;1.30;;;13.00;99.90;;;;;;5037679;28;20182;-82
2022/06/09 04:17:59;;;;;;;3.83;1.30;;;13.00;99.90;;;;;;5041675;28;20631;-82
2022/06/09 04:20:26;;;;;;;1.57;1.10;;;13.00;99.90;;;;;;5038218;28;20543;-83
2022/06/09 04:22:52;;;;;;;1.47;1.00;;;13.10;99.90;;;;;;5039798;28;20186;-82
2022/06/09 04:25:20;;;;;;;1.97;1.03;;;13.10;99.90;;;;;;5037999;28;20649;-82
2022/06/09 04:27:46;;;;;;;1.83;1.00;;;13.10;99.90;;;;;;5038535;28;20288;-81
2022/06/09 04:30:13;;;;;;;2.23;0.90;;;13.10;99.90;;;;;;5038346;28;20216;-81
2022/06/09 04:32:39;;;;;;;1.33;0.90;;;13.10;99.90;;;;;;5039550;28;20202;-81
2022/06/09 04:35:05;;;;;;;1.10;1.00;;;13.20;99.90;;;;;;5037844;28;20609;-81
2022/06/09 04:40:15;;;;;;;1.10;0.80;;;13.10;99.90;;;;;;5038750;28;20193;-81
2022/06/09 04:42:41;;;;;;;1.17;0.93;;;13.10;99.90;;;;;;5039100;28;20174;-81
2022/06/09 04:45:07;;;;;;;1.53;1.10;;;13.00;99.90;;;;;;5038774;28;20182;-81
2022/06/09 04:47:33;;;;;;;1.80;0.90;;;13.00;99.90;;;;;;5037765;28;20221;-81
2022/06/09 04:49:59;;;;;;;1.00;0.90;;;13.00;99.90;;;;;;5038336;28;20178;-81
2022/06/09 04:52:24;;;;;;;1.20;1.03;;;13.00;99.90;;;;;;5038972;28;20720;-81
2022/06/09 04:54:50;;;;;;;2.77;0.90;;;13.10;99.90;;;;;;5037125;28;20273;-82
2022/06/09 04:57:16;;;;;;;1.10;1.00;;;13.10;99.90;;;;;;5038170;28;20269;-81
2022/06/09 04:59:41;;;;;;;1.17;0.90;;;13.20;99.90;;;;;;5038768;28;20205;-81
2022/06/09 05:02:07;;;;;;;4.83;1.00;;;13.20;99.90;;;;;;5038819;28;20174;-81
2022/06/09 05:04:33;;;;;;;1.43;0.70;;;13.20;99.90;;;;;;5038267;28;20264;-81
2022/06/09 05:06:58;;;;;;;1.43;1.00;;;13.20;99.90;;;;;;5037408;28;20624;-82
2022/06/09 05:09:24;;;;;;;2.23;1.17;;;13.20;99.90;;;;;;5037360;28;20225;-81
2022/06/09 05:11:50;;;;;;;3.63;1.30;;;13.30;99.90;;;;;;5038484;28;20662;-81
2022/06/09 05:14:15;;;;;;;1.30;0.97;;;13.30;99.90;;;;;;5039863;28;20182;-84
2022/06/09 05:16:41;;;;;;;1.60;0.90;;;13.40;99.90;;;;;;5038633;28;20202;-82
2022/06/09 05:19:07;;;;;;;2.00;0.90;;;13.40;99.90;;;;;;5039303;28;20556;-83
2022/06/09 05:21:32;;;;;;;2.60;1.10;;;13.40;99.90;;;;;;5038209;28;20205;-83
2022/06/09 05:23:58;;;;;;;1.30;1.00;;;13.30;99.90;;;;;;5038806;28;20241;-82
2022/06/09 05:26:24;;;;;;;2.07;1.17;;;13.40;99.90;;;;;;5039842;28;20182;-83
2022/06/09 05:28:51;;;;;;;2.60;1.10;;;13.40;99.90;;;;;;5037241;28;20206;-81
2022/06/09 05:31:16;;;;;;;1.10;0.97;;;13.40;99.90;;;;;;5042156;28;20265;-81
2022/06/09 05:33:42;;;;;;;1.47;0.93;;;13.40;99.90;;;;;;5047942;28;20171;-82
2022/06/09 05:36:08;;;;;;;1.10;0.80;;;13.50;99.90;;;;;;5038830;28;20186;-83
2022/06/09 05:46:48;;;;;;;1.73;0.80;;;13.60;99.90;;;;;;5037634;28;20219;-82
2022/06/09 05:49:17;;;;;;;1.93;0.77;;;13.60;99.90;;;;;;5036005;28;20205;-82
2022/06/09 05:51:44;;;;;;;0.60;0.60;;;13.70;99.90;;;;;;5038028;28;20216;-83
2022/06/09 05:54:09;;;;;;;3.10;0.77;;;13.80;99.90;;;;;;5038369;28;20279;-82
2022/06/09 05:56:35;;;;;;;0.70;0.60;;;13.80;99.90;;;;;;5038501;28;20584;-82
2022/06/09 05:59:01;;;;;;;0.80;0.53;;;13.80;99.90;;;;;;5036066;28;20194;-82
2022/06/09 06:01:27;;;;;;;1.33;0.60;;;13.90;99.90;;;;;;5036810;28;20551;-82
2022/06/09 06:03:53;;;;;;;1.00;0.70;;;13.90;99.90;;;;;;5038146;28;20179;-82
2022/06/09 06:06:34;;;;;;;1.97;0.63;;;14.00;99.90;;;;;;5037379;28;20644;-83
2022/06/09 06:09:10;;;;;;;0.90;0.70;;;13.90;99.90;;;;;;5037347;28;20221;-83
2022/06/09 06:11:37;;;;;;;0.70;0.70;;;13.90;99.90;;;;;;5038262;28;20220;-83
2022/06/09 06:14:04;;;;;;;1.60;0.70;;;13.90;99.90;;;;;;5037023;28;20185;-83
2022/06/09 06:16:30;;;;;;;0.70;0.60;;;13.80;99.90;;;;;;5037908;28;20169;-83
2022/06/09 06:18:56;;;;;;;0.80;0.60;;;13.70;99.90;;;;;;5038097;28;20196;-82
2022/06/09 06:21:23;;;;;;;0.73;0.60;;;13.60;99.90;;;;;;5037280;28;20615;-82
2022/06/09 06:23:49;;;;;;;1.10;0.77;;;13.60;99.90;;;;;;5038662;28;20175;-82
2022/06/09 06:26:16;;;;;;;1.10;1.00;;;13.60;99.90;;;;;;5036915;28;20181;-83
2022/06/09 06:28:42;;;;;;;1.60;0.87;;;13.60;99.90;;;;;;5038168;28;20198;-82
2022/06/09 06:31:08;;;;;;;2.63;1.00;;;13.50;99.90;;;;;;5037700;28;20186;-82
2022/06/09 06:33:33;;;;;;;1.67;0.83;;;13.40;99.90;;;;;;5036848;28;20678;-82
2022/06/09 06:35:59;;;;;;;2.27;0.97;;;13.40;99.90;;;;;;5036712;28;20532;-82
2022/06/09 06:38:25;;;;;;;2.47;0.60;;;13.50;99.90;;;;;;5037049;28;20694;-82
2022/06/09 06:40:50;;;;;;;3.07;0.97;;;13.50;99.90;;;;;;5036690;28;20700;-82
2022/06/09 06:43:16;;;;;;;2.40;0.93;;;13.60;99.90;;;;;;5036844;28;20177;-82
2022/06/09 06:45:43;;;;;;;2.57;0.93;;;13.70;99.90;;;;;;5037319;28;20588;-83
2022/06/09 06:48:09;;;;;;;2.47;1.00;;;13.70;99.90;;;;;;5036840;28;20251;-82
2022/06/09 06:50:35;;;;;;;1.53;0.90;;;13.80;99.90;;;;;;5035939;28;20269;-83
2022/06/09 06:53:01;;;;;;;1.93;1.03;;;13.80;99.90;;;;;;5036574;28;20679;-83
2022/06/09 06:55:27;;;;;;;4.20;1.10;;;13.90;99.90;;;;;;5037970;28;20241;-83
2022/06/09 06:57:53;;;;;;;1.50;0.90;;;14.00;99.90;;;;;;5037904;28;20691;-83
2022/06/09 07:00:21;;;;;;;2.40;1.00;;;14.10;99.90;;;;;;5038552;28;20166;-83
2022/06/09 07:02:48;;;;;;;1.80;0.77;;;14.20;99.90;;;;;;5036823;28;20178;-82
2022/06/09 07:05:16;;;;;;;1.83;0.90;;;14.20;99.90;;;;;;5036565;28;20170;-82
2022/06/09 07:07:42;;;;;;;2.80;1.00;;;14.30;99.90;;;;;;5049149;28;20237;-82
2022/06/09 07:10:09;;;;;;;1.80;0.93;;;14.30;99.90;;;;;;5041243;28;20199;-82
2022/06/09 07:12:35;;;;;;;1.80;0.90;;;14.30;99.90;;;;;;5050051;28;20202;-83
2022/06/09 07:15:01;;;;;;;1.97;0.80;;;14.30;99.90;;;;;;5051073;28;20197;-82
2022/06/09 07:17:27;;;;;;;3.27;0.90;;;14.20;99.90;;;;;;5042891;28;20650;-82
2022/06/09 07:19:53;;;;;;;3.03;0.97;;;14.20;99.90;;;;;;5040551;28;20174;-82
2022/06/09 07:22:19;;;;;;;5.73;1.40;;;14.20;99.90;;;;;;5039038;28;20272;-82
2022/06/09 07:24:46;;;;;;;2.73;0.67;;;14.20;99.90;;;;;;5039518;28;20179;-82
2022/06/09 07:27:12;;;;;;;1.50;0.93;;;14.20;99.90;;;;;;5039585;28;20280;-82
2022/06/09 07:29:38;;;;;;;2.83;0.90;;;14.30;99.90;;;;;;5040706;28;20241;-82
2022/06/09 07:32:05;;;;;;;5.23;0.97;;;14.40;99.90;;;;;;5040618;28;20209;-82
2022/06/09 07:34:31;;;;;;;3.00;1.10;;;14.40;99.90;;;;;;5039795;28;20178;-82
2022/06/09 07:36:56;;;;;;;2.80;0.90;;;14.40;99.90;;;;;;5039449;28;20201;-82
2022/06/09 07:39:24;;;;;;;1.67;1.10;;;14.30;99.90;;;;;;5039029;28;20190;-82
2022/06/09 07:41:50;;;;;;;3.80;1.33;;;14.30;99.90;;;;;;5039333;28;20190;-83
2022/06/09 07:44:16;;;;;;;2.43;0.90;;;14.20;99.90;;;;;;5041533;28;20174;-82
2022/06/09 07:46:42;;;;;;;5.30;1.30;;;14.30;99.90;;;;;;5040581;28;20254;-82
2022/06/09 07:49:08;;;;;;;6.40;1.20;;;14.30;99.90;;;;;;5038884;28;20651;-82
2022/06/09 07:51:34;;;;;;;2.13;0.90;;;14.30;99.90;;;;;;5038490;28;20198;-82
2022/06/09 07:54:01;;;;;;;2.63;1.20;;;14.30;99.90;;;;;;5040175;28;20170;-82
2022/06/09 07:56:29;;;;;;;3.23;1.17;;;14.30;99.90;;;;;;5038958;28;20170;-82
2022/06/09 07:58:55;;;;;;;4.50;1.13;;;14.40;99.90;;;;;;5038978;28;20205;-82
2022/06/09 08:01:22;;;;;;;3.57;1.10;;;14.50;99.90;;;;;;5039196;28;20659;-82
2022/06/09 08:03:48;;;;;;;2.67;0.90;;;14.50;99.90;;;;;;5038454;28;20261;-82
2022/06/09 08:06:15;;;;;;;3.97;1.03;;;14.50;99.90;;;;;;5040105;28;20569;-82
2022/06/09 08:08:40;;;;;;;1.70;0.90;;;14.50;99.90;;;;;;5040061;28;20237;-82
2022/06/09 08:11:07;;;;;;;3.37;1.00;;;14.60;99.90;;;;;;5038853;28;20212;-82
2022/06/09 08:13:34;;;;;;;2.47;1.33;;;14.60;99.90;;;;;;5039126;28;20175;-82
2022/06/09 08:16:02;;;;;;;1.47;1.10;;;14.70;99.90;;;;;;5039237;28;20246;-82
2022/06/09 08:18:28;;;;;;;3.33;1.70;;;14.70;99.90;;;;;;5040443;28;20272;-82
2022/06/09 08:20:55;;;;;;;2.07;1.17;;;14.70;99.90;;;;;;5039260;28;20178;-83
2022/06/09 08:23:24;;;;;;;4.60;1.00;;;14.70;99.90;;;;;;5039463;28;20178;-82
2022/06/09 08:25:53;;;;;;;3.63;1.53;;;14.60;99.90;;;;;;5040275;28;20277;-83
2022/06/09 08:28:20;;;;;;;5.67;1.23;;;14.60;99.90;;;;;;5039067;28;20198;-83
2022/06/09 08:30:49;;;;;;;1.80;1.07;;;14.50;99.90;;;;;;5039946;28;20535;-82
2022/06/09 08:33:15;;;;;;;4.83;1.10;;;14.30;99.90;;;;;;5038043;28;20240;-82
2022/06/09 08:35:41;;;;;;;3.57;1.20;;;14.10;99.90;;;;;;5039324;28;20167;-81
2022/06/09 08:38:07;;;;;;;3.10;1.50;;;13.90;99.90;;;;;;5037823;28;20202;-82
2022/06/09 08:40:54;;;;;;;3.33;1.00;;;13.70;99.90;;;;;;5038647;28;20170;-81
2022/06/09 08:43:34;;;;;;;3.67;1.10;;;13.60;99.90;;;;;;5038967;28;20212;-81
2022/06/09 08:46:13;;;;;;;3.80;1.00;;;13.50;99.90;;;;;;5037549;28;20178;-81
2022/06/09 08:48:43;;;;;;;1.90;1.10;;;13.30;99.90;;;;;;5038894;28;20194;-81
2022/06/09 08:51:20;;;;;;;3.37;1.20;;;13.20;99.90;;;;;;5038729;28;20166;-80
2022/06/09 08:53:49;;;;;;;2.20;1.40;;;13.10;99.90;;;;;;5038923;28;20257;-81
2022/06/09 08:56:23;;;;;;;2.00;0.90;;;13.10;99.90;;;;;;5041460;28;20197;-80
2022/06/09 08:59:01;;;;;;;2.60;1.17;;;13.00;99.90;;;;;;5044251;28;20216;-81
2022/06/09 09:02:02;;;;;;;4.60;1.20;;;13.10;99.90;;;;;;5044041;28;20233;-81
2022/06/09 09:04:31;;;;;;;3.27;1.60;;;13.20;99.90;;;;;;5026112;28;20190;-81
2022/06/09 09:07:01;;;;;;;2.80;1.50;;;13.20;99.90;;;;;;5037694;28;20715;-81
2022/06/09 09:09:32;;;;;;;5.57;2.60;;;13.30;99.90;;;;;;5038271;28;20206;-81
2022/06/09 09:12:23;;;;;;;2.37;1.23;;;13.50;99.90;;;;;;5036786;28;20245;-81
2022/06/09 09:15:16;;;;;;;4.40;1.20;;;13.70;99.90;;;;;;5037296;28;20181;-81
2022/06/09 09:17:58;;;;;;;3.43;1.30;;;14.00;99.90;;;;;;5038398;28;20213;-81
2022/06/09 09:20:31;;;;;;;5.07;1.60;;;14.00;99.90;;;;;;5037973;28;20540;-80
2022/06/09 09:23:16;;;;;;;1.50;0.90;;;14.10;99.90;;;;;;5038367;28;20181;-81
2022/06/09 09:25:42;;;;;;;3.07;1.67;;;14.20;99.90;;;;;;5038043;28;20574;-81
2022/06/09 09:28:30;;;;;;;1.90;1.30;;;14.30;99.90;;;;;;5036558;28;20668;-81
2022/06/09 09:31:21;;;;;;;3.47;1.20;;;14.40;99.90;;;;;;5036761;28;20198;-81
2022/06/09 09:33:47;;;;;;;4.63;1.37;;;14.50;99.90;;;;;;5036834;28;20222;-81
2022/06/09 09:36:27;;;;;;;1.80;1.30;;;14.60;99.90;;;;;;5036649;28;20243;-81
2022/06/09 09:39:23;;;;;;;2.07;1.20;;;14.50;99.90;;;;;;5037185;28;20198;-81
2022/06/09 09:41:54;;;;;;;2.53;1.00;;;14.40;99.90;;;;;;5030031;28;20189;-81
2022/06/09 09:44:26;;;;;;;1.63;1.00;;;14.20;99.90;;;;;;5038564;28;20205;-81
2022/06/09 09:47:01;;;;;;;4.67;1.50;;;14.10;99.90;;;;;;5038005;28;20630;-80
2022/06/09 09:49:32;;;;;;;3.47;1.30;;;14.00;99.90;;;;;;5039006;28;20189;-80
2022/06/09 09:51:59;;;;;;;3.10;1.50;;;14.00;99.90;;;;;;5038501;28;20197;-81
2022/06/09 09:54:38;;;;;;;2.07;1.00;;;14.00;99.90;;;;;;5037591;28;20205;-81
2022/06/09 09:57:16;;;;;;;0.90;0.70;;;13.90;99.90;;;;;;5037384;28;20216;-81
2022/06/09 09:59:53;;;;;;;0.73;0.60;;;13.70;99.90;;;;;;5037530;28;20198;-82
2022/06/09 10:08:39;;;;;;;2.13;0.60;;;13.70;99.90;;;;;;5039880;28;20587;-83
2022/06/09 10:11:53;;;;;;;1.77;0.90;;;13.70;99.90;;;;;;5037569;28;20616;-81
2022/06/09 10:14:42;;;;;;;1.13;0.83;;;13.70;99.90;;;;;;5024340;28;20247;-81
2022/06/09 10:17:45;;;;;;;4.10;1.00;;;13.60;99.90;;;;;;5037228;28;20163;-83
2022/06/09 10:20:34;;;;;;;2.47;0.80;;;13.60;99.90;;;;;;5038227;28;20170;-83
2022/06/09 10:23:09;;;;;;;1.67;0.80;;;13.60;99.90;;;;;;5037974;28;20525;-83
2022/06/09 10:26:02;;;;;;;4.57;1.03;;;13.30;99.90;;;;;;5038380;28;20536;-83
2022/06/09 10:28:49;;;;;;;3.53;1.10;;;13.30;99.90;;;;;;5036637;28;20202;-83
2022/06/09 10:31:44;;;;;;;1.57;1.00;;;13.30;99.90;;;;;;5037524;28;20174;-84
2022/06/09 10:34:22;;;;;;;1.30;0.70;;;13.20;99.90;;;;;;5037703;28;20185;-83
2022/06/09 10:37:01;;;;;;;1.57;0.93;;;13.20;99.90;;;;;;5036974;28;20762;-83
2022/06/09 10:39:35;;;;;;;2.37;0.90;;;13.30;99.90;;;;;;5035794;28;20243;-82
2022/06/09 10:42:17;;;;;;;2.63;1.20;;;13.30;99.90;;;;;;5045451;28;20537;-82
2022/06/09 10:45:16;;;;;;;2.20;1.10;;;13.30;99.90;;;;;;5045963;28;20193;-82
2022/06/09 10:56:38;;;;;;;1.70;1.03;;;13.50;99.90;;;;;;5037360;28;20322;-82
2022/06/09 10:59:26;;;;;;;1.97;1.20;;;13.50;99.90;;;;;;5035590;28;20194;-82
2022/06/09 11:01:52;;;;;;;2.13;1.30;;;13.50;99.90;;;;;;5035552;28;20205;-82
2022/06/09 11:04:19;;;;;;;1.70;0.90;;;13.50;99.90;;;;;;5035894;28;20663;-82
2022/06/09 11:07:10;;;;;;;2.57;1.10;;;13.30;99.90;;;;;;5035650;28;20246;-82
2022/06/09 11:10:01;;;;;;;3.50;1.10;;;13.00;99.90;;;;;;5040415;28;20217;-80
2022/06/09 11:12:42;;;;;;;1.57;1.10;;;13.10;99.90;;;;;;5035913;28;20228;-81
2022/06/09 11:15:25;;;;;;;4.20;1.20;;;13.50;99.90;;;;;;5037153;28;20162;-80
2022/06/09 11:18:02;;;;;;;1.00;0.77;;;13.90;99.90;;;;;;5036777;28;20603;-83
2022/06/09 11:20:52;;;;;;;3.00;1.10;;;13.90;99.90;;;;;;5035386;28;20169;-82
2022/06/09 11:23:43;;;;;;;1.77;0.70;;;14.20;99.90;;;;;;5036323;28;20256;-82
2022/06/09 11:26:22;;;;;;;4.83;1.40;;;14.20;99.90;;;;;;5038618;28;20185;-83
2022/06/09 11:28:59;;;;;;;2.30;0.87;;;14.10;99.90;;;;;;5037374;28;20198;-83
2022/06/09 11:32:03;;;;;;;1.00;0.73;;;14.00;99.90;;;;;;5037153;28;20162;-83
2022/06/09 11:34:44;;;;;;;1.53;0.77;;;13.70;99.90;;;;;;5037767;28;20154;-82
2022/06/09 11:37:10;;;;;;;1.77;0.90;;;13.40;99.90;;;;;;5035647;28;20195;-82
2022/06/09 11:39:49;;;;;;;3.03;0.83;;;13.40;99.90;;;;;;5035072;28;20199;-82
2022/06/09 11:42:55;;;;;;;1.63;0.67;;;13.20;99.90;;;;;;5036952;28;20253;-82
2022/06/09 11:45:43;;;;;;;1.70;1.00;;;13.20;99.90;;;;;;5018047;28;20186;-82
2022/06/09 11:48:18;;;;;;;2.20;0.77;;;13.00;99.90;;;;;;5035238;28;20268;-83
2022/06/09 11:50:45;;;;;;;2.63;1.13;;;13.00;99.90;;;;;;5036370;28;20169;-83
2022/06/09 11:53:25;;;;;;;1.93;1.23;;;13.10;99.90;;;;;;5036222;28;20252;-83
2022/06/09 11:56:00;;;;;;;1.70;1.13;;;13.10;99.90;;;;;;5035435;28;20197;-83
2022/06/09 11:58:35;;;;;;;2.60;1.00;;;13.20;99.90;;;;;;5038452;28;20244;-83
2022/06/09 12:01:33;;;;;;;2.20;0.70;;;13.30;99.90;;;;;;5039401;28;20173;-83
2022/06/09 12:04:14;;;;;;;1.33;0.73;;;13.30;99.90;;;;;;5036655;28;20544;-83
2022/06/09 12:07:01;;;;;;;2.00;0.67;;;13.30;99.90;;;;;;5040657;28;20200;-83
2022/06/09 12:09:26;;;;;;;1.10;0.70;;;13.40;99.90;;;;;;5038914;28;20221;-83
2022/06/09 12:12:02;;;;;;;1.30;0.70;;;13.40;99.90;;;;;;5039166;28;20670;-83
2022/06/09 12:14:37;;;;;;;1.90;0.80;;;13.50;99.90;;;;;;5040423;28;20182;-83
2022/06/09 12:17:17;;;;;;;2.47;1.00;;;13.70;99.90;;;;;;5038899;28;20176;-83
2022/06/09 12:19:52;;;;;;;1.60;0.97;;;13.90;99.90;;;;;;5039221;28;20269;-83
2022/06/09 12:22:40;;;;;;;2.70;1.10;;;14.20;99.90;;;;;;5039726;28;20193;-83
2022/06/09 12:25:10;;;;;;;0.90;0.80;;;14.30;99.90;;;;;;5043103;28;20178;-82
2022/06/09 12:27:37;;;;;;;1.03;0.63;;;14.40;99.90;;;;;;5051409;28;20178;-84
2022/06/09 12:30:03;;;;;;;2.93;1.03;;;14.40;99.90;;;;;;5052443;28;20166;-83
2022/06/09 12:32:43;;;;;;;1.63;1.10;;;14.30;99.90;;;;;;5042400;28;20205;-83
2022/06/09 12:35:20;;;;;;;1.70;1.00;;;14.30;99.90;;;;;;5037765;28;20206;-83
2022/06/09 12:37:56;;;;;;;2.17;1.10;;;14.00;99.90;;;;;;5038179;28;20192;-82
2022/06/09 12:40:26;;;;;;;2.27;0.97;;;13.90;99.90;;;;;;5036583;28;20192;-84
2022/06/09 12:42:59;;;;;;;2.90;0.87;;;13.80;99.90;;;;;;5036481;28;20178;-84
2022/06/09 12:45:28;;;;;;;2.37;1.10;;;13.50;99.90;;;;;;5036255;28;20174;-85
2022/06/09 12:47:59;;;;;;;2.00;0.80;;;13.30;99.90;;;;;;5036059;28;20212;-84
2022/06/09 12:50:30;;;;;;;1.87;0.90;;;13.30;99.90;;;;;;5036015;28;20177;-84
2022/06/09 12:52:57;;;;;;;2.03;0.90;;;13.20;99.90;;;;;;5036111;28;20228;-85
2022/06/09 12:55:28;;;;;;;1.53;0.60;;;13.20;99.90;;;;;;5038193;28;20204;-85
2022/06/09 12:58:02;;;;;;;2.87;1.20;;;13.50;99.90;;;;;;5040694;28;20184;-86
2022/06/09 13:00:46;;;;;;;1.53;1.43;;;13.50;99.90;;;;;;5039198;28;20168;-86
2022/06/09 13:03:32;;;;;;;1.33;0.90;;;13.70;99.90;;;;;;5039104;28;20175;-86
2022/06/09 13:06:23;;;;;;;1.93;1.10;;;14.20;99.90;;;;;;5038923;28;20170;-87
2022/06/09 13:08:53;;;;;;;1.73;0.73;;;14.40;99.90;;;;;;5038530;28;20237;-85
2022/06/09 13:14:26;;;;;;;1.40;1.17;;;14.70;99.90;;;;;;5040221;28;20209;-85
2022/06/09 13:16:56;;;;;;;3.10;0.90;;;15.00;99.90;;;;;;5039823;28;20573;-86
2022/06/09 13:19:25;;;;;;;1.27;0.70;;;15.00;99.90;;;;;;5039114;28;20194;-86
2022/06/09 13:21:52;;;;;;;1.50;0.60;;;15.20;99.90;;;;;;5041554;28;20174;-87
2022/06/09 13:24:21;;;;;;;1.90;0.70;;;15.30;99.90;;;;;;5041940;28;20261;-86
2022/06/09 13:26:47;;;;;;;1.43;0.73;;;15.50;99.90;;;;;;5041291;28;20170;-86
2022/06/09 13:29:27;;;;;;;3.10;0.87;;;15.70;99.90;;;;;;5040366;28;20279;-86
2022/06/09 13:32:28;;;;;;;1.00;0.70;;;15.80;99.90;;;;;;5043671;28;20198;-86
2022/06/09 13:34:59;;;;;;;1.33;0.80;;;16.00;99.90;;;;;;5040668;28;20277;-86
2022/06/09 13:37:43;;;;;;;1.13;0.90;;;16.00;99.90;;;;;;5039996;28;20518;-85
2022/06/09 13:40:09;;;;;;;2.10;0.70;;;16.10;99.90;;;;;;5038161;28;20175;-85